createdAt,value
2018-04-04T00:00:38.699Z,4.70
2018-04-04T00:03:06.878Z,5.63
2018-04-04T00:05:34.919Z,5.57
2018-04-04T00:08:03.274Z,5.23
2018-04-04T00:10:31.402Z,5.77
2018-04-04T00:12:59.446Z,4.40
2018-04-04T00:15:28.282Z,4.80
2018-04-04T00:17:56.394Z,4.87
2018-04-04T00:20:24.487Z,5.40
2018-04-04T00:22:52.680Z,4.47
2018-04-04T00:25:20.741Z,5.67
2018-04-04T00:27:49.687Z,4.90
2018-04-04T00:30:17.781Z,5.10
2018-04-04T00:32:46.780Z,5.57
2018-04-04T00:35:16.626Z,4.60
2018-04-04T00:37:45.654Z,4.53
2018-04-04T00:40:14.066Z,4.47
2018-04-04T00:42:42.168Z,4.93
2018-04-04T00:45:10.566Z,5.00
2018-04-04T00:47:38.654Z,4.40
2018-04-04T00:50:06.721Z,5.23
2018-04-04T00:52:35.067Z,5.20
2018-04-04T00:55:03.158Z,5.10
2018-04-04T00:57:31.439Z,6.30
2018-04-04T01:00:00.590Z,5.30
2018-04-04T01:02:28.991Z,5.53
2018-04-04T01:04:59.638Z,5.87
2018-04-04T01:07:27.777Z,4.60
2018-04-04T01:09:55.817Z,5.10
2018-04-04T01:12:24.634Z,5.10
2018-04-04T01:14:53.586Z,4.97
2018-04-04T01:17:21.668Z,5.90
2018-04-04T01:19:49.743Z,4.93
2018-04-04T01:22:18.692Z,4.97
2018-04-04T01:24:46.982Z,7.00
2018-04-04T01:27:15.119Z,5.47
2018-04-04T01:29:43.519Z,5.20
2018-04-04T01:32:11.608Z,5.20
2018-04-04T01:34:39.673Z,5.03
2018-04-04T01:37:07.744Z,5.07
2018-04-04T01:39:36.585Z,6.10
2018-04-04T01:42:04.631Z,5.27
2018-04-04T01:44:32.715Z,5.10
2018-04-04T01:47:00.767Z,5.47
2018-04-04T01:49:28.874Z,5.87
2018-04-04T01:51:56.931Z,5.03
2018-04-04T01:54:25.009Z,4.30
2018-04-04T01:56:53.053Z,7.97
2018-04-04T01:59:21.093Z,5.33
2018-04-04T02:01:49.157Z,5.00
2018-04-04T02:04:17.261Z,5.30
2018-04-04T02:06:45.406Z,4.80
2018-04-04T02:09:14.331Z,4.70
2018-04-04T02:11:43.202Z,4.90
2018-04-04T02:14:11.285Z,4.73
2018-04-04T02:16:39.373Z,4.60
2018-04-04T02:19:07.418Z,4.90
2018-04-04T02:21:35.503Z,5.00
2018-04-04T02:24:03.592Z,4.40
2018-04-04T02:26:31.781Z,4.73
2018-04-04T02:28:59.858Z,4.70
2018-04-04T02:31:27.958Z,5.60
2018-04-04T02:33:56.040Z,6.03
2018-04-04T02:36:24.087Z,5.00
2018-04-04T02:38:52.351Z,5.30
2018-04-04T02:41:20.394Z,5.17
2018-04-04T02:43:48.437Z,4.27
2018-04-04T02:46:16.532Z,4.73
2018-04-04T02:48:44.609Z,5.30
2018-04-04T02:51:13.559Z,5.27
2018-04-04T02:53:41.626Z,5.70
2018-04-04T02:56:09.752Z,4.93
2018-04-04T02:58:37.797Z,5.20
2018-04-04T03:01:06.653Z,4.43
2018-04-04T03:03:34.698Z,5.13
2018-04-04T03:06:03.557Z,5.10
2018-04-04T03:08:31.663Z,5.00
2018-04-04T03:10:59.736Z,6.00
2018-04-04T03:13:27.794Z,4.60
2018-04-04T03:15:55.874Z,4.40
2018-04-04T03:18:23.919Z,5.27
2018-04-04T03:20:52.770Z,4.30
2018-04-04T03:23:20.838Z,5.00
2018-04-04T03:25:49.656Z,5.87
2018-04-04T03:28:18.485Z,5.40
2018-04-04T03:30:46.572Z,4.90
2018-04-04T03:33:14.713Z,4.47
2018-04-04T03:35:42.834Z,5.80
2018-04-04T03:38:11.069Z,4.37
2018-04-04T03:40:39.146Z,4.90
2018-04-04T03:43:08.190Z,4.87
2018-04-04T03:45:36.321Z,6.43
2018-04-04T03:48:04.338Z,4.77
2018-04-04T03:50:32.523Z,4.13
2018-04-04T03:53:00.580Z,4.90
2018-04-04T03:55:28.978Z,5.20
2018-04-04T03:57:57.074Z,4.77
2018-04-04T04:00:25.120Z,4.57
2018-04-04T04:02:53.199Z,5.63
2018-04-04T04:05:21.277Z,4.07
2018-04-04T04:07:49.355Z,4.57
2018-04-04T04:10:17.458Z,4.33
2018-04-04T04:12:45.523Z,4.67
2018-04-04T04:15:14.878Z,5.37
2018-04-04T04:17:43.217Z,4.80
2018-04-04T04:20:11.307Z,4.87
2018-04-04T04:22:39.354Z,5.00
2018-04-04T04:25:08.197Z,6.73
2018-04-04T04:27:36.271Z,5.37
2018-04-04T04:30:04.388Z,5.33
2018-04-04T04:32:32.453Z,5.23
2018-04-04T04:35:01.310Z,5.60
2018-04-04T04:37:29.397Z,5.57
2018-04-04T04:39:57.469Z,4.80
2018-04-04T04:42:26.323Z,5.90
2018-04-04T04:44:54.751Z,7.27
2018-04-04T04:47:22.809Z,7.20
2018-04-04T04:49:50.862Z,6.33
2018-04-04T04:52:19.717Z,5.93
2018-04-04T04:54:47.810Z,7.10
2018-04-04T04:57:15.911Z,9.20
2018-04-04T04:59:44.028Z,8.40
2018-04-04T05:02:12.215Z,6.13
2018-04-04T05:04:40.270Z,8.03
2018-04-04T05:07:09.113Z,5.10
2018-04-04T05:09:37.145Z,6.80
2018-04-04T05:12:05.224Z,7.10
2018-04-04T05:14:33.295Z,5.87
2018-04-04T05:17:01.396Z,5.90
2018-04-04T05:19:29.499Z,6.60
2018-04-04T05:21:57.590Z,8.03
2018-04-04T05:24:25.679Z,16.20
2018-04-04T05:26:53.762Z,11.67
2018-04-04T05:29:22.906Z,11.23
2018-04-04T05:31:50.973Z,10.03
2018-04-04T05:34:19.791Z,8.77
2018-04-04T05:36:48.650Z,8.00
2018-04-04T05:39:16.727Z,9.93
2018-04-04T05:41:44.817Z,7.53
2018-04-04T05:44:12.917Z,9.13
2018-04-04T05:46:41.013Z,7.30
2018-04-04T05:49:09.098Z,6.27
2018-04-04T05:51:37.147Z,6.67
2018-04-04T05:54:05.199Z,6.43
2018-04-04T05:56:33.303Z,7.60
2018-04-04T05:59:01.355Z,6.27
2018-04-04T06:01:29.674Z,5.83
2018-04-04T06:03:58.002Z,6.47
2018-04-04T06:06:26.286Z,5.43
2018-04-04T06:08:54.877Z,5.30
2018-04-04T06:11:23.163Z,5.17
2018-04-04T06:13:53.216Z,5.47
2018-04-04T06:16:22.274Z,5.83
2018-04-04T06:18:50.682Z,6.70
2018-04-04T06:21:18.983Z,8.30
2018-04-04T06:23:47.319Z,7.80
2018-04-04T06:26:15.642Z,8.03
2018-04-04T06:28:43.969Z,5.87
2018-04-04T06:31:12.270Z,5.60
2018-04-04T06:33:40.903Z,5.10
2018-04-04T06:36:09.177Z,4.07
2018-04-04T06:38:37.508Z,4.83
2018-04-04T06:41:05.845Z,4.03
2018-04-04T06:43:34.894Z,3.93
2018-04-04T06:46:03.173Z,3.90
2018-04-04T06:48:32.249Z,4.03
2018-04-04T06:51:00.646Z,3.90
2018-04-04T06:53:28.976Z,3.90
2018-04-04T06:55:57.282Z,3.57
2018-04-04T06:58:25.678Z,4.43
2018-04-04T07:00:54.058Z,3.53
2018-04-04T07:03:22.383Z,3.20
2018-04-04T07:05:50.681Z,5.00
2018-04-04T07:08:19.004Z,3.60
2018-04-04T07:10:47.290Z,3.63
2018-04-04T07:13:15.622Z,3.37
2018-04-04T07:15:43.942Z,2.80
2018-04-04T07:18:12.287Z,3.20
2018-04-04T07:20:40.666Z,2.43
2018-04-04T07:23:08.970Z,2.90
2018-04-04T07:25:37.283Z,3.47
2018-04-04T07:28:05.779Z,2.80
2018-04-04T07:30:34.050Z,2.70
2018-04-04T07:33:02.394Z,2.83
2018-04-04T07:35:30.742Z,2.80
2018-04-04T07:37:59.834Z,3.20
2018-04-04T07:40:29.849Z,2.93
2018-04-04T07:42:58.124Z,2.23
2018-04-04T07:45:26.410Z,2.53
2018-04-04T07:47:55.790Z,2.30
2018-04-04T07:50:24.074Z,2.20
2018-04-04T07:52:52.357Z,2.80
2018-04-04T07:55:20.678Z,2.30
2018-04-04T07:57:48.957Z,2.20
2018-04-04T08:00:17.286Z,3.03
2018-04-04T08:02:45.570Z,1.93
2018-04-04T08:05:13.927Z,2.70
2018-04-04T08:07:42.293Z,2.90
2018-04-04T08:10:10.592Z,4.00
2018-04-04T08:12:38.931Z,2.40
2018-04-04T08:15:07.301Z,6.00
2018-04-04T08:17:35.609Z,12.03
2018-04-04T08:20:04.021Z,17.13
2018-04-04T08:22:32.351Z,3.83
2018-04-04T08:25:00.636Z,2.40
2018-04-04T08:27:29.014Z,10.43
2018-04-04T08:29:57.342Z,11.33
2018-04-04T08:32:25.731Z,7.33
2018-04-04T08:34:54.045Z,25.73
2018-04-04T08:37:22.330Z,1.77
2018-04-04T08:39:50.703Z,10.13
2018-04-04T08:42:19.031Z,5.00
2018-04-04T08:44:47.309Z,4.80
2018-04-04T08:47:15.659Z,3.07
2018-04-04T08:49:43.975Z,2.20
2018-04-04T08:52:12.290Z,4.27
2018-04-04T08:54:41.365Z,2.30
2018-04-04T08:57:09.727Z,12.73
2018-04-04T08:59:38.018Z,4.20
2018-04-04T09:02:07.102Z,3.50
2018-04-04T09:04:35.498Z,1.57
2018-04-04T09:07:03.785Z,5.63
2018-04-04T09:09:32.102Z,6.30
2018-04-04T09:12:00.386Z,2.27
2018-04-04T09:14:28.728Z,1.57
2018-04-04T09:16:57.107Z,1.67
2018-04-04T09:19:25.385Z,0.97
2018-04-04T09:21:53.807Z,1.10
2018-04-04T09:24:22.091Z,1.10
2018-04-04T09:26:50.444Z,1.57
2018-04-04T09:29:18.703Z,1.50
2018-04-04T09:31:47.039Z,1.63
2018-04-04T09:34:15.325Z,1.10
2018-04-04T09:36:43.950Z,1.10
2018-04-04T09:39:12.567Z,1.10
2018-04-04T09:41:40.841Z,1.20
2018-04-04T09:44:09.145Z,1.10
2018-04-04T09:46:37.483Z,1.37
2018-04-04T09:49:06.538Z,1.10
2018-04-04T09:51:34.834Z,2.53
2018-04-04T09:54:03.150Z,1.07
2018-04-04T09:56:31.470Z,1.00
2018-04-04T09:58:59.759Z,1.53
2018-04-04T10:01:34.666Z,1.00
2018-04-04T10:04:03.859Z,0.90
2018-04-04T10:06:32.148Z,0.90
2018-04-04T10:09:00.566Z,0.90
2018-04-04T10:11:28.851Z,1.03
2018-04-04T10:13:57.253Z,1.00
2018-04-04T10:16:25.566Z,0.77
2018-04-04T10:18:53.882Z,1.27
2018-04-04T10:21:22.272Z,1.10
2018-04-04T10:23:50.559Z,1.90
2018-04-04T10:26:18.841Z,1.07
2018-04-04T10:28:47.182Z,0.97
2018-04-04T10:31:15.583Z,1.63
2018-04-04T10:33:44.198Z,0.80
2018-04-04T10:36:12.703Z,0.70
2018-04-04T10:38:40.978Z,0.90
2018-04-04T10:41:09.400Z,1.23
2018-04-04T10:43:37.741Z,1.93
2018-04-04T10:46:06.047Z,0.90
2018-04-04T10:48:35.143Z,1.07
2018-04-04T10:51:03.417Z,0.90
2018-04-04T10:53:31.743Z,0.90
2018-04-04T10:56:00.054Z,1.03
2018-04-04T10:58:28.430Z,2.07
2018-04-04T11:00:56.715Z,1.27
2018-04-04T11:03:24.993Z,1.33
2018-04-04T11:05:53.315Z,1.00
2018-04-04T11:08:21.950Z,0.90
2018-04-04T11:10:50.245Z,0.70
2018-04-04T11:13:18.532Z,0.97
2018-04-04T11:15:46.854Z,0.70
2018-04-04T11:18:15.149Z,0.70
2018-04-04T11:20:43.492Z,0.70
2018-04-04T11:23:12.623Z,0.87
2018-04-04T11:25:41.665Z,0.90
2018-04-04T11:28:09.989Z,0.70
2018-04-04T11:30:38.270Z,1.40
2018-04-04T11:33:06.697Z,0.87
2018-04-04T11:35:34.982Z,0.70
2018-04-04T11:38:03.413Z,0.90
2018-04-04T11:40:31.710Z,0.87
2018-04-04T11:43:00.002Z,0.93
2018-04-04T11:45:28.326Z,0.73
2018-04-04T11:47:56.606Z,1.03
2018-04-04T11:50:24.894Z,1.00
2018-04-04T11:52:53.209Z,0.60
2018-04-04T11:55:21.493Z,1.07
2018-04-04T11:57:49.826Z,0.90
2018-04-04T12:00:18.110Z,0.90
2018-04-04T12:02:46.739Z,0.80
2018-04-04T12:05:15.053Z,1.30
2018-04-04T12:07:43.348Z,1.00
2018-04-04T12:10:11.662Z,1.00
2018-04-04T12:12:40.015Z,0.70
2018-04-04T12:15:09.083Z,0.80
2018-04-04T12:17:37.461Z,0.70
2018-04-04T12:20:05.782Z,0.80
2018-04-04T12:22:34.070Z,0.80
2018-04-04T12:25:02.404Z,0.80
2018-04-04T12:27:30.778Z,0.80
2018-04-04T12:29:59.386Z,1.00
2018-04-04T12:32:27.692Z,0.80
2018-04-04T12:34:55.973Z,0.80
2018-04-04T12:37:24.297Z,0.70
2018-04-04T12:39:52.579Z,0.90
2018-04-04T12:42:20.914Z,0.80
2018-04-04T12:44:49.199Z,0.93
2018-04-04T12:47:17.538Z,1.00
2018-04-04T12:49:46.594Z,0.63
2018-04-04T12:52:14.943Z,0.97
2018-04-04T12:54:43.625Z,1.10
2018-04-04T12:57:11.936Z,1.10
2018-04-04T12:59:40.441Z,1.30
2018-04-04T13:02:08.747Z,1.57
2018-04-04T13:04:42.026Z,1.33
2018-04-04T13:07:10.350Z,0.90
2018-04-04T13:09:38.634Z,1.23
2018-04-04T13:12:07.025Z,1.10
2018-04-04T13:14:35.343Z,1.53
2018-04-04T13:17:03.878Z,0.90
2018-04-04T13:19:32.158Z,0.80
2018-04-04T13:22:00.442Z,0.80
2018-04-04T13:24:28.789Z,0.80
2018-04-04T13:26:57.117Z,1.00
2018-04-04T13:29:26.175Z,1.10
2018-04-04T13:31:54.459Z,1.10
2018-04-04T13:34:23.542Z,1.47
2018-04-04T13:36:53.370Z,1.20
2018-04-04T13:39:21.654Z,1.10
2018-04-04T13:41:50.066Z,1.20
2018-04-04T13:44:18.390Z,0.97
2018-04-04T13:46:46.676Z,1.00
2018-04-04T13:49:15.014Z,1.03
2018-04-04T13:51:44.206Z,1.30
2018-04-04T13:54:12.525Z,1.50
2018-04-04T13:56:40.819Z,1.10
2018-04-04T13:59:09.334Z,0.90
2018-04-04T14:01:37.614Z,1.37
2018-04-04T14:04:05.907Z,3.30
2018-04-04T14:06:34.226Z,0.90
2018-04-04T14:09:02.499Z,1.73
2018-04-04T14:11:30.842Z,1.13
2018-04-04T14:13:59.138Z,1.20
2018-04-04T14:16:27.432Z,0.90
2018-04-04T14:18:55.766Z,0.90
2018-04-04T14:21:24.809Z,1.07
2018-04-04T14:23:53.095Z,1.43
2018-04-04T14:26:22.186Z,1.00
2018-04-04T14:28:50.461Z,1.03
2018-04-04T14:31:19.041Z,1.27
2018-04-04T14:33:47.383Z,1.03
2018-04-04T14:36:15.673Z,1.13
2018-04-04T14:38:44.035Z,0.97
2018-04-04T14:41:12.322Z,0.80
2018-04-04T14:43:41.408Z,1.30
2018-04-04T14:46:09.903Z,0.80
2018-04-04T14:48:38.197Z,1.30
2018-04-04T14:51:06.526Z,1.30
2018-04-04T14:53:34.907Z,7.17
2018-04-04T14:56:03.287Z,3.03
2018-04-04T14:58:31.716Z,1.77
2018-04-04T15:01:00.024Z,1.93
2018-04-04T15:03:28.338Z,1.40
2018-04-04T15:05:56.626Z,1.87
2018-04-04T15:08:24.946Z,1.80
2018-04-04T15:10:53.226Z,1.00
2018-04-04T15:13:21.551Z,1.40
2018-04-04T15:15:49.940Z,1.10
2018-04-04T15:18:18.224Z,1.17
2018-04-04T15:20:46.561Z,1.13
2018-04-04T15:23:14.845Z,1.03
2018-04-04T15:25:43.318Z,1.33
2018-04-04T15:28:12.872Z,1.10
2018-04-04T15:30:41.144Z,1.20
2018-04-04T15:33:09.989Z,1.20
2018-04-04T15:35:38.276Z,1.90
2018-04-04T15:38:06.599Z,1.67
2018-04-04T15:40:34.913Z,1.60
2018-04-04T15:43:03.306Z,1.77
2018-04-04T15:45:31.621Z,0.90
2018-04-04T15:48:00.015Z,0.97
2018-04-04T15:50:28.335Z,1.20
2018-04-04T15:52:58.163Z,2.17
2018-04-04T15:55:26.441Z,1.40
2018-04-04T15:57:54.780Z,1.20
2018-04-04T16:00:23.064Z,2.43
2018-04-04T16:02:51.341Z,0.90
2018-04-04T16:05:19.669Z,0.90
2018-04-04T16:07:47.978Z,1.57
2018-04-04T16:10:16.271Z,1.37
2018-04-04T16:12:44.613Z,0.97
2018-04-04T16:15:13.976Z,1.20
2018-04-04T16:17:42.274Z,1.50
2018-04-04T16:20:10.592Z,1.17
2018-04-04T16:22:39.010Z,1.33
2018-04-04T16:25:07.329Z,1.97
2018-04-04T16:27:35.626Z,3.50
2018-04-04T16:30:04.007Z,3.10
2018-04-04T16:32:32.298Z,2.90
2018-04-04T16:35:00.621Z,2.23
2018-04-04T16:37:28.950Z,1.47
2018-04-04T16:39:58.035Z,1.40
2018-04-04T16:42:26.390Z,1.17
2018-04-04T16:44:55.046Z,1.47
2018-04-04T16:47:23.358Z,1.20
2018-04-04T16:49:53.159Z,1.93
2018-04-04T16:52:21.538Z,1.00
2018-04-04T16:54:50.625Z,2.30
2018-04-04T16:57:20.458Z,1.40
2018-04-04T16:59:48.782Z,1.30
2018-04-04T17:02:17.870Z,1.40
2018-04-04T17:04:46.176Z,1.33
2018-04-04T17:07:14.528Z,2.00
2018-04-04T17:09:42.824Z,1.00
2018-04-04T17:12:11.265Z,1.33
2018-04-04T17:14:39.593Z,4.83
2018-04-04T17:17:08.186Z,1.97
2018-04-04T17:19:36.468Z,1.30
2018-04-04T17:22:04.781Z,1.20
2018-04-04T17:24:33.110Z,1.50
2018-04-04T17:27:01.645Z,1.60
2018-04-04T17:29:30.691Z,1.40
2018-04-04T17:31:58.983Z,1.43
2018-04-04T17:34:27.340Z,1.70
2018-04-04T17:36:55.635Z,1.80
2018-04-04T17:39:23.954Z,1.67
2018-04-04T17:41:52.238Z,1.43
2018-04-04T17:44:20.561Z,1.90
2018-04-04T17:46:48.887Z,1.73
2018-04-04T17:49:17.939Z,1.57
2018-04-04T17:51:46.363Z,2.67
2018-04-04T17:54:14.735Z,3.20
2018-04-04T17:56:43.120Z,3.80
2018-04-04T17:59:12.195Z,4.00
2018-04-04T18:01:40.487Z,3.30
2018-04-04T18:04:08.806Z,2.50
2018-04-04T18:06:38.613Z,1.97
2018-04-04T18:09:07.342Z,1.63
2018-04-04T18:11:35.661Z,2.23
2018-04-04T18:14:04.038Z,1.40
2018-04-04T18:16:32.372Z,1.70
2018-04-04T18:19:00.651Z,2.20
2018-04-04T18:21:29.121Z,3.40
2018-04-04T18:23:58.162Z,2.83
2018-04-04T18:26:26.786Z,2.07
2018-04-04T18:28:55.062Z,2.63
2018-04-04T18:31:23.348Z,2.63
2018-04-04T18:33:51.666Z,2.50
2018-04-04T18:36:19.997Z,2.53
2018-04-04T18:38:48.306Z,2.20
2018-04-04T18:41:18.173Z,2.80
2018-04-04T18:43:46.453Z,2.83
2018-04-04T18:46:15.579Z,2.40
2018-04-04T18:48:44.859Z,2.00
2018-04-04T18:51:13.147Z,2.30
2018-04-04T18:53:41.413Z,2.57
2018-04-04T18:56:10.503Z,2.87
2018-04-04T18:58:39.110Z,2.53
2018-04-04T19:01:07.506Z,2.53
2018-04-04T19:03:35.858Z,2.70
2018-04-04T19:06:04.945Z,3.23
2018-04-04T19:08:33.228Z,2.00
2018-04-04T19:11:01.633Z,2.03
2018-04-04T19:13:29.909Z,2.40
2018-04-04T19:15:58.342Z,3.30
2018-04-04T19:18:26.626Z,3.77
2018-04-04T19:20:54.987Z,3.80
2018-04-04T19:23:23.467Z,4.03
2018-04-04T19:25:51.799Z,4.70
2018-04-04T19:28:20.854Z,4.43
2018-04-04T19:30:49.173Z,3.70
2018-04-04T19:33:18.734Z,3.70
2018-04-04T19:35:47.117Z,3.60
2018-04-04T19:38:15.401Z,3.50
2018-04-04T19:40:44.590Z,3.47
2018-04-04T19:43:13.665Z,4.03
2018-04-04T19:45:41.998Z,3.47
2018-04-04T19:48:11.081Z,3.73
2018-04-04T19:50:39.367Z,3.07
2018-04-04T19:53:07.715Z,3.40
2018-04-04T19:55:36.019Z,4.23
2018-04-04T19:58:04.598Z,2.77
2018-04-04T20:00:32.904Z,2.53
2018-04-04T20:03:01.198Z,3.03
2018-04-04T20:05:29.587Z,2.53
2018-04-04T20:07:57.902Z,1.43
2018-04-04T20:10:26.214Z,1.13
2018-04-04T20:12:54.495Z,0.80
2018-04-04T20:15:22.802Z,0.97
2018-04-04T20:17:51.122Z,1.00
2018-04-04T20:20:19.417Z,0.73
2018-04-04T20:22:47.707Z,0.87
2018-04-04T20:25:16.088Z,0.43
2018-04-04T20:27:44.347Z,0.60
2018-04-04T20:30:13.489Z,0.60
2018-04-04T20:32:42.876Z,0.97
2018-04-04T20:35:11.157Z,0.50
2018-04-04T20:37:40.399Z,0.50
2018-04-04T20:40:08.706Z,0.40
2018-04-04T20:42:36.999Z,1.83
2018-04-04T20:45:05.398Z,0.60
2018-04-04T20:47:33.688Z,0.50
2018-04-04T20:50:01.966Z,1.10
2018-04-04T20:52:30.318Z,0.50
2018-04-04T20:54:58.646Z,0.60
2018-04-04T20:57:27.730Z,0.63
2018-04-04T20:59:56.015Z,0.70
2018-04-04T21:02:24.432Z,0.60
2018-04-04T21:04:52.726Z,0.60
2018-04-04T21:07:21.351Z,0.57
2018-04-04T21:09:49.654Z,0.63
2018-04-04T21:12:17.929Z,0.50
2018-04-04T21:14:46.578Z,0.50
2018-04-04T21:17:14.890Z,0.63
2018-04-04T21:19:43.250Z,0.93
2018-04-04T21:22:11.568Z,0.60
2018-04-04T21:24:42.342Z,0.57
2018-04-04T21:27:10.630Z,0.50
2018-04-04T21:29:38.937Z,0.50
2018-04-04T21:32:07.234Z,0.70
2018-04-04T21:34:35.567Z,0.70
2018-04-04T21:37:04.613Z,0.50
2018-04-04T21:39:32.926Z,0.80
2018-04-04T21:42:01.231Z,0.60
2018-04-04T21:44:29.735Z,0.60
2018-04-04T21:46:58.030Z,0.70
2018-04-04T21:49:26.351Z,0.60
2018-04-04T21:51:54.643Z,0.40
2018-04-04T21:54:22.951Z,0.60
2018-04-04T21:56:51.267Z,0.70
2018-04-04T21:59:19.591Z,0.60
2018-04-04T22:01:47.874Z,0.60
2018-04-04T22:04:16.166Z,0.50
2018-04-04T22:06:44.502Z,0.60
2018-04-04T22:09:12.839Z,0.60
2018-04-04T22:11:41.123Z,0.57
2018-04-04T22:14:10.201Z,0.70
2018-04-04T22:16:38.487Z,0.80
2018-04-04T22:19:06.811Z,0.70
2018-04-04T22:21:35.093Z,0.57
2018-04-04T22:24:03.407Z,0.83
2018-04-04T22:26:31.713Z,0.50
2018-04-04T22:29:00.558Z,0.73
2018-04-04T22:31:29.651Z,0.70
2018-04-04T22:33:57.944Z,0.60
2018-04-04T22:36:26.250Z,1.00
2018-04-04T22:38:54.531Z,1.43
2018-04-04T22:41:22.848Z,1.00
2018-04-04T22:43:51.254Z,0.83
2018-04-04T22:46:19.583Z,0.70
2018-04-04T22:48:47.866Z,0.70
2018-04-04T22:51:16.199Z,0.70
2018-04-04T22:53:45.266Z,0.80
2018-04-04T22:56:13.587Z,0.70
2018-04-04T22:58:41.878Z,0.70
2018-04-04T23:01:10.276Z,1.13
2018-04-04T23:03:38.556Z,0.90
2018-04-04T23:06:06.866Z,1.23
2018-04-04T23:08:35.158Z,0.77
2018-04-04T23:11:03.801Z,0.80
2018-04-04T23:13:32.085Z,0.70
2018-04-04T23:16:00.386Z,0.80
2018-04-04T23:18:28.703Z,0.80
2018-04-04T23:20:57.013Z,0.70
2018-04-04T23:23:25.311Z,0.80
2018-04-04T23:34:51.374Z,0.80
2018-04-04T23:37:19.664Z,1.10
2018-04-04T23:39:48.714Z,0.70
2018-04-04T23:42:17.046Z,1.10
2018-04-04T23:44:45.356Z,1.20
2018-04-04T23:47:13.834Z,1.27
2018-04-04T23:49:42.155Z,0.90
2018-04-04T23:52:10.648Z,0.90
2018-04-04T23:54:38.929Z,1.10
2018-04-04T23:57:07.262Z,1.33
2018-04-04T23:59:37.104Z,0.83
